createdAt,value
2022-10-15T00:00:22.077Z,5.70
2022-10-15T00:02:50.492Z,5.97
2022-10-15T00:05:18.516Z,5.33
2022-10-15T00:07:46.387Z,5.30
2022-10-15T00:10:14.785Z,5.70
2022-10-15T00:12:43.068Z,5.60
2022-10-15T00:15:11.867Z,5.30
2022-10-15T00:17:41.401Z,5.27
2022-10-15T00:20:11.653Z,5.30
2022-10-15T00:22:40.109Z,5.40
2022-10-15T00:25:09.222Z,5.23
2022-10-15T00:27:38.187Z,5.07
2022-10-15T00:30:07.305Z,5.30
2022-10-15T00:32:35.452Z,4.87
2022-10-15T00:35:05.180Z,4.73
2022-10-15T00:37:33.009Z,5.57
2022-10-15T00:42:33.648Z,6.23
2022-10-15T00:45:01.909Z,5.83
2022-10-15T00:47:36.219Z,7.43
2022-10-15T00:50:09.137Z,6.07
2022-10-15T00:52:47.081Z,6.27
2022-10-15T00:55:17.371Z,6.20
2022-10-15T00:57:47.963Z,6.40
2022-10-15T01:00:17.118Z,6.10
2022-10-15T01:02:46.264Z,5.90
2022-10-15T01:05:17.658Z,5.80
2022-10-15T01:07:45.535Z,5.13
2022-10-15T01:10:13.859Z,5.80
2022-10-15T01:12:58.010Z,5.40
2022-10-15T01:15:30.483Z,5.50
2022-10-15T01:18:02.607Z,5.13
2022-10-15T01:20:51.570Z,5.07
2022-10-15T01:23:55.044Z,5.63
2022-10-15T01:27:00.186Z,5.50
2022-10-15T01:29:47.828Z,5.60
2022-10-15T01:32:22.496Z,5.50
2022-10-15T01:34:57.680Z,5.60
2022-10-15T01:37:30.396Z,5.87
2022-10-15T01:40:05.321Z,5.73
2022-10-15T01:42:37.643Z,5.90
2022-10-15T01:45:11.104Z,5.73
2022-10-15T01:47:47.487Z,6.30
2022-10-15T01:50:18.070Z,5.93
2022-10-15T01:52:46.541Z,6.17
2022-10-15T01:55:18.111Z,6.57
2022-10-15T01:57:47.280Z,6.20
2022-10-15T02:00:15.535Z,5.87
2022-10-15T02:02:44.819Z,6.37
2022-10-15T02:05:19.109Z,6.17
2022-10-15T02:07:54.800Z,6.50
2022-10-15T02:10:29.012Z,6.23
2022-10-15T02:13:09.772Z,6.47
2022-10-15T02:15:45.889Z,6.07
2022-10-15T02:18:19.843Z,6.60
2022-10-15T02:20:54.242Z,6.43
2022-10-15T02:23:25.681Z,6.40
2022-10-15T02:25:54.524Z,6.60
2022-10-15T02:28:25.827Z,5.97
2022-10-15T02:30:54.276Z,6.63
2022-10-15T02:33:25.404Z,6.63
2022-10-15T02:35:54.074Z,6.80
2022-10-15T02:38:26.125Z,6.23
2022-10-15T02:40:55.032Z,6.80
2022-10-15T02:43:23.712Z,7.07
2022-10-15T02:45:51.625Z,7.33
2022-10-15T02:48:21.810Z,7.90
2022-10-15T02:50:51.055Z,6.87
2022-10-15T02:53:18.912Z,7.33
2022-10-15T02:55:47.094Z,7.73
2022-10-15T02:58:14.961Z,7.07
2022-10-15T03:00:42.854Z,7.17
2022-10-15T03:03:11.676Z,6.77
2022-10-15T03:05:39.670Z,6.97
2022-10-15T03:08:08.897Z,6.80
2022-10-15T03:10:36.898Z,6.83
2022-10-15T03:13:05.331Z,7.47
2022-10-15T03:15:33.607Z,7.07
2022-10-15T03:18:01.622Z,7.27
2022-10-15T03:20:29.536Z,6.73
2022-10-15T03:22:57.414Z,7.00
2022-10-15T03:25:26.657Z,7.03
2022-10-15T03:27:54.515Z,7.63
2022-10-15T03:30:22.404Z,6.60
2022-10-15T03:32:50.338Z,7.47
2022-10-15T03:35:18.447Z,7.70
2022-10-15T03:37:46.287Z,7.20
2022-10-15T03:40:14.788Z,6.90
2022-10-15T03:42:44.096Z,6.47
2022-10-15T03:45:12.387Z,6.80
2022-10-15T03:47:40.248Z,6.70
2022-10-15T03:50:08.705Z,6.73
2022-10-15T03:52:37.780Z,6.90
2022-10-15T03:55:06.794Z,6.43
2022-10-15T03:57:37.175Z,6.30
2022-10-15T04:00:09.568Z,6.20
2022-10-15T04:02:37.438Z,6.50
2022-10-15T04:05:05.995Z,6.13
2022-10-15T04:07:33.943Z,6.80
2022-10-15T04:10:01.790Z,7.10
2022-10-15T04:12:29.650Z,7.43
2022-10-15T04:14:57.503Z,7.63
2022-10-15T04:17:26.784Z,7.40
2022-10-15T04:19:54.635Z,7.23
2022-10-15T04:22:22.726Z,6.80
2022-10-15T04:24:51.177Z,7.80
2022-10-15T04:27:19.127Z,7.43
2022-10-15T04:29:48.473Z,6.77
2022-10-15T04:32:16.995Z,7.10
2022-10-15T04:34:47.391Z,7.43
2022-10-15T04:37:15.436Z,8.20
2022-10-15T04:39:43.263Z,7.37
2022-10-15T04:42:11.199Z,7.13
2022-10-15T04:44:39.061Z,7.40
2022-10-15T04:47:06.911Z,7.23
2022-10-15T04:49:34.768Z,9.80
2022-10-15T04:52:04.187Z,10.43
2022-10-15T04:54:32.105Z,8.07
2022-10-15T04:57:00.061Z,7.80
2022-10-15T04:59:27.922Z,9.23
2022-10-15T05:01:55.865Z,8.33
2022-10-15T05:04:23.754Z,8.60
2022-10-15T05:06:51.604Z,8.60
2022-10-15T05:09:20.947Z,9.73
2022-10-15T05:11:48.776Z,8.70
2022-10-15T05:14:16.625Z,8.47
2022-10-15T05:16:44.674Z,8.43
2022-10-15T05:19:12.787Z,8.97
2022-10-15T05:21:41.043Z,11.73
2022-10-15T05:24:08.984Z,12.37
2022-10-15T05:26:38.423Z,13.27
2022-10-15T05:29:06.294Z,13.10
2022-10-15T05:31:34.766Z,10.30
2022-10-15T05:34:08.224Z,8.07
2022-10-15T05:36:36.987Z,8.30
2022-10-15T05:39:07.138Z,7.33
2022-10-15T05:41:35.077Z,7.30
2022-10-15T05:44:04.664Z,8.60
2022-10-15T05:46:32.582Z,7.70
2022-10-15T05:49:00.782Z,8.37
2022-10-15T05:51:29.225Z,7.83
2022-10-15T05:53:58.448Z,7.73
2022-10-15T05:56:27.190Z,8.43
2022-10-15T05:58:55.400Z,7.90
2022-10-15T06:01:24.879Z,9.23
2022-10-15T06:03:52.943Z,9.30
2022-10-15T06:06:22.896Z,7.43
2022-10-15T06:08:53.342Z,8.40
2022-10-15T06:11:21.585Z,8.90
2022-10-15T06:13:49.539Z,9.40
2022-10-15T06:16:22.539Z,9.10
2022-10-15T06:18:54.535Z,7.77
2022-10-15T06:21:22.741Z,8.57
2022-10-15T06:23:50.624Z,9.37
2022-10-15T06:26:18.596Z,9.23
2022-10-15T06:28:46.480Z,9.40
2022-10-15T06:31:14.440Z,10.00
2022-10-15T06:33:42.288Z,9.13
2022-10-15T06:36:13.753Z,8.03
2022-10-15T06:38:44.142Z,8.07
2022-10-15T06:41:12.296Z,7.83
2022-10-15T06:43:40.509Z,7.30
2022-10-15T06:46:08.398Z,7.57
2022-10-15T06:48:36.482Z,7.30
2022-10-15T06:51:05.623Z,7.07
2022-10-15T06:53:35.180Z,7.60
2022-10-15T06:56:04.286Z,7.33
2022-10-15T06:58:32.165Z,8.00
2022-10-15T07:01:03.473Z,7.97
2022-10-15T07:03:31.343Z,6.80
2022-10-15T07:06:03.589Z,5.93
2022-10-15T07:08:31.521Z,6.50
2022-10-15T07:11:02.648Z,6.97
2022-10-15T07:13:30.839Z,5.53
2022-10-15T07:15:58.704Z,6.28
2022-10-15T07:18:26.562Z,6.82
2022-10-15T07:20:54.438Z,6.70
2022-10-15T07:23:25.522Z,6.25
2022-10-15T07:25:56.087Z,6.47
2022-10-15T07:28:25.500Z,6.47
2022-10-15T07:30:53.720Z,6.85
2022-10-15T07:33:21.756Z,5.78
2022-10-15T07:35:49.584Z,5.88
2022-10-15T07:38:17.984Z,5.80
2022-10-15T07:40:46.028Z,5.78
2022-10-15T07:43:14.164Z,6.25
2022-10-15T07:45:48.757Z,5.50
2022-10-15T07:48:16.795Z,5.40
2022-10-15T07:50:44.704Z,5.68
2022-10-15T07:53:12.671Z,6.10
2022-10-15T07:55:40.508Z,6.28
2022-10-15T07:58:08.857Z,5.60
2022-10-15T08:00:36.774Z,5.82
2022-10-15T08:03:06.080Z,5.72
2022-10-15T08:05:35.147Z,5.80
2022-10-15T08:08:03.450Z,5.93
2022-10-15T08:10:31.335Z,5.70
2022-10-15T08:12:59.183Z,6.07
2022-10-15T08:15:27.074Z,5.85
2022-10-15T08:17:54.947Z,5.90
2022-10-15T08:20:24.192Z,6.05
2022-10-15T08:22:52.045Z,6.45
2022-10-15T08:25:19.931Z,6.10
2022-10-15T08:27:47.819Z,6.43
2022-10-15T08:30:15.944Z,6.30
2022-10-15T08:32:43.820Z,6.35
2022-10-15T08:35:11.686Z,6.03
2022-10-15T08:37:40.919Z,5.70
2022-10-15T08:40:11.202Z,5.55
2022-10-15T08:42:42.831Z,6.05
2022-10-15T08:45:15.173Z,5.65
2022-10-15T08:47:47.596Z,5.97
2022-10-15T08:50:27.686Z,5.22
2022-10-15T08:53:00.132Z,5.82
2022-10-15T08:55:33.595Z,5.50
2022-10-15T08:58:08.129Z,6.47
2022-10-15T09:00:42.191Z,8.27
2022-10-15T09:03:25.392Z,6.25
2022-10-15T09:06:02.039Z,6.15
2022-10-15T09:08:38.133Z,6.40
2022-10-15T09:11:13.440Z,6.65
2022-10-15T09:13:44.425Z,6.18
2022-10-15T09:16:17.552Z,5.55
2022-10-15T09:18:48.552Z,6.22
2022-10-15T09:21:17.505Z,5.88
2022-10-15T09:23:46.991Z,6.78
2022-10-15T09:26:26.305Z,5.80
2022-10-15T09:29:04.511Z,6.07
2022-10-15T09:31:41.193Z,5.80
2022-10-15T09:34:16.137Z,5.70
2022-10-15T09:36:50.994Z,7.47
2022-10-15T09:39:44.751Z,7.75
2022-10-15T09:42:27.205Z,6.63
2022-10-15T09:44:58.783Z,6.28
2022-10-15T09:47:28.886Z,5.38
2022-10-15T09:49:56.772Z,5.53
2022-10-15T09:52:36.416Z,5.78
2022-10-15T09:55:11.871Z,4.68
2022-10-15T09:57:41.295Z,4.70
2022-10-15T10:00:11.820Z,5.40
2022-10-15T10:02:39.766Z,4.95
2022-10-15T10:05:21.519Z,5.38
2022-10-15T10:07:49.349Z,5.07
2022-10-15T10:10:27.904Z,5.38
2022-10-15T10:12:57.140Z,5.00
2022-10-15T10:15:34.267Z,5.20
2022-10-15T10:18:02.395Z,5.20
2022-10-15T10:20:31.877Z,5.20
2022-10-15T10:23:01.324Z,5.40
2022-10-15T10:25:42.475Z,5.82
2022-10-15T10:28:21.910Z,5.20
2022-10-15T10:31:03.727Z,5.28
2022-10-15T10:33:35.928Z,5.35
2022-10-15T10:36:06.112Z,6.82
2022-10-15T10:38:36.071Z,5.55
2022-10-15T10:41:09.801Z,4.55
2022-10-15T10:43:39.600Z,4.57
2022-10-15T10:46:18.154Z,4.90
2022-10-15T10:48:47.711Z,5.05
2022-10-15T10:51:19.408Z,5.32
2022-10-15T10:53:54.520Z,5.00
2022-10-15T10:56:28.862Z,5.03
2022-10-15T10:59:00.169Z,4.80
2022-10-15T11:01:29.270Z,4.20
2022-10-15T11:03:57.541Z,4.20
2022-10-15T11:06:57.804Z,4.07
2022-10-15T11:09:47.931Z,4.68
2022-10-15T11:12:36.413Z,3.97
2022-10-15T11:15:18.956Z,4.50
2022-10-15T11:17:53.264Z,3.88
2022-10-15T11:20:39.023Z,3.38
2022-10-15T11:23:29.716Z,3.22
2022-10-15T11:26:05.913Z,4.22
2022-10-15T11:28:51.326Z,4.40
2022-10-15T11:31:27.720Z,3.88
2022-10-15T11:34:17.260Z,5.43
2022-10-15T11:36:56.315Z,3.38
2022-10-15T11:39:53.608Z,3.70
2022-10-15T11:42:26.821Z,4.15
2022-10-15T11:45:06.772Z,3.30
2022-10-15T11:47:48.585Z,3.33
2022-10-15T11:50:27.705Z,3.50
2022-10-15T11:53:10.404Z,3.78
2022-10-15T11:55:42.344Z,3.40
2022-10-15T11:58:16.389Z,3.72
2022-10-15T12:00:51.286Z,3.92
2022-10-15T12:03:24.069Z,3.40
2022-10-15T12:05:55.682Z,3.40
2022-10-15T12:08:27.763Z,4.03
2022-10-15T12:11:05.775Z,3.55
2022-10-15T12:13:41.429Z,3.72
2022-10-15T12:16:20.840Z,3.80
2022-10-15T12:18:56.466Z,5.68
2022-10-15T12:21:39.552Z,8.07
2022-10-15T12:24:47.705Z,3.50
2022-10-15T12:27:24.038Z,3.40
2022-10-15T12:29:54.160Z,3.65
2022-10-15T12:32:26.456Z,3.40
2022-10-15T12:34:58.340Z,3.80
2022-10-15T12:37:29.143Z,4.00
2022-10-15T12:39:59.833Z,3.50
2022-10-15T12:42:31.806Z,3.50
2022-10-15T12:45:02.761Z,3.53
2022-10-15T12:47:50.465Z,3.22
2022-10-15T12:50:20.625Z,3.47
2022-10-15T12:52:57.860Z,3.60
2022-10-15T12:55:29.807Z,3.90
2022-10-15T12:58:00.578Z,3.78
2022-10-15T13:00:32.231Z,3.20
2022-10-15T13:03:12.229Z,3.28
2022-10-15T13:05:40.924Z,3.70
2022-10-15T13:08:16.120Z,3.53
2022-10-15T13:10:50.985Z,3.30
2022-10-15T13:13:22.301Z,3.50
2022-10-15T13:15:58.793Z,3.95
2022-10-15T13:18:31.445Z,3.90
2022-10-15T13:20:59.970Z,3.50
2022-10-15T13:23:30.458Z,4.03
2022-10-15T13:26:19.876Z,3.70
2022-10-15T13:28:48.988Z,2.97
2022-10-15T13:31:23.577Z,3.43
2022-10-15T13:34:00.483Z,3.83
2022-10-15T13:36:31.944Z,3.83
2022-10-15T13:39:03.716Z,3.30
2022-10-15T13:41:34.880Z,3.40
2022-10-15T13:44:03.183Z,4.63
2022-10-15T13:46:33.574Z,3.90
2022-10-15T13:49:10.176Z,4.20
2022-10-15T13:51:41.494Z,3.50
2022-10-15T13:54:12.884Z,3.80
2022-10-15T13:56:47.894Z,3.90
2022-10-15T13:59:20.288Z,3.60
2022-10-15T14:01:50.796Z,3.50
2022-10-15T14:04:21.230Z,3.10
2022-10-15T14:09:35.917Z,3.63
2022-10-15T14:12:06.901Z,3.43
2022-10-15T14:14:36.695Z,3.07
2022-10-15T14:17:06.844Z,6.67
2022-10-15T14:19:38.285Z,3.77
2022-10-15T14:22:07.060Z,3.37
2022-10-15T14:24:36.798Z,3.47
2022-10-15T14:27:07.407Z,4.50
2022-10-15T14:29:43.954Z,5.00
2022-10-15T14:32:24.356Z,6.27
2022-10-15T14:34:55.451Z,4.03
2022-10-15T14:37:44.278Z,6.60
2022-10-15T14:40:30.151Z,3.30
2022-10-15T14:43:06.590Z,3.50
2022-10-15T14:45:41.951Z,3.53
2022-10-15T14:48:12.378Z,4.40
2022-10-15T14:50:44.904Z,3.23
2022-10-15T14:53:19.533Z,4.43
2022-10-15T14:55:52.354Z,4.40
2022-10-15T14:58:22.515Z,5.13
2022-10-15T15:00:57.172Z,4.00
2022-10-15T15:03:30.816Z,3.90
2022-10-15T15:06:00.096Z,4.20
2022-10-15T15:08:28.332Z,4.83
2022-10-15T15:10:58.861Z,4.00
2022-10-15T15:13:28.793Z,3.93
2022-10-15T15:15:56.733Z,4.70
2022-10-15T15:18:25.091Z,3.87
2022-10-15T15:20:52.980Z,4.07
2022-10-15T15:23:25.040Z,5.57
2022-10-15T15:25:54.157Z,4.03
2022-10-15T15:28:24.322Z,5.20
2022-10-15T15:30:58.034Z,4.90
2022-10-15T15:33:26.517Z,4.43
2022-10-15T15:35:56.551Z,4.97
2022-10-15T15:38:30.835Z,5.17
2022-10-15T15:41:03.384Z,5.30
2022-10-15T15:43:31.734Z,5.00
2022-10-15T15:45:59.587Z,10.03
2022-10-15T15:48:27.445Z,4.80
2022-10-15T15:50:56.889Z,5.37
2022-10-15T15:53:26.120Z,6.53
2022-10-15T15:55:54.019Z,12.77
2022-10-15T15:58:21.882Z,11.23
2022-10-15T16:00:49.747Z,4.67
2022-10-15T16:03:17.632Z,6.37
2022-10-15T16:05:45.804Z,5.57
2022-10-15T16:08:14.353Z,5.67
2022-10-15T16:10:44.788Z,5.17
2022-10-15T16:13:12.641Z,5.60
2022-10-15T16:15:40.480Z,6.50
2022-10-15T16:18:08.518Z,5.33
2022-10-15T16:20:39.525Z,5.03
2022-10-15T16:23:07.529Z,5.40
2022-10-15T16:25:35.449Z,21.30
2022-10-15T16:28:04.761Z,5.60
2022-10-15T16:30:32.684Z,5.33
2022-10-15T16:33:00.651Z,6.20
2022-10-15T16:35:28.576Z,8.27
2022-10-15T16:37:56.539Z,5.83
2022-10-15T16:40:24.503Z,6.00
2022-10-15T16:42:52.367Z,6.07
2022-10-15T16:45:21.608Z,5.77
2022-10-15T16:47:49.936Z,5.80
2022-10-15T16:50:18.061Z,5.47
2022-10-15T16:52:46.064Z,6.50
2022-10-15T16:55:13.935Z,6.47
2022-10-15T16:57:42.245Z,6.00
2022-10-15T17:00:11.424Z,6.67
2022-10-15T17:02:40.793Z,6.33
2022-10-15T17:05:09.655Z,6.70
2022-10-15T17:07:37.560Z,5.87
2022-10-15T17:10:08.561Z,5.10
2022-10-15T17:12:38.963Z,5.10
2022-10-15T17:15:08.182Z,5.10
2022-10-15T17:17:37.237Z,4.53
2022-10-15T17:20:09.154Z,5.10
2022-10-15T17:22:37.602Z,5.60
2022-10-15T17:25:06.183Z,4.90
2022-10-15T17:27:35.727Z,6.03
2022-10-15T17:30:03.681Z,6.33
2022-10-15T17:32:31.537Z,6.70
2022-10-15T17:35:03.796Z,6.50
2022-10-15T17:40:07.447Z,7.70
2022-10-15T17:42:36.685Z,7.47
2022-10-15T17:45:05.220Z,7.40
2022-10-15T17:47:33.093Z,5.97
2022-10-15T17:50:00.937Z,8.67
2022-10-15T17:52:28.792Z,7.70
2022-10-15T17:54:58.023Z,7.57
2022-10-15T17:57:26.171Z,11.00
2022-10-15T17:59:54.309Z,8.57
2022-10-15T18:02:22.208Z,10.30
2022-10-15T18:04:50.115Z,8.60
2022-10-15T18:07:19.859Z,8.80
2022-10-15T18:09:47.753Z,10.87
2022-10-15T18:12:17.066Z,14.73
2022-10-15T18:14:44.907Z,19.17
2022-10-15T18:17:13.050Z,23.50
2022-10-15T18:19:41.031Z,11.70
2022-10-15T18:22:08.871Z,14.33
2022-10-15T18:24:36.754Z,22.70
2022-10-15T18:27:04.815Z,19.93
2022-10-15T18:29:35.981Z,13.90
2022-10-15T18:32:04.037Z,13.80
2022-10-15T18:34:33.308Z,11.70
2022-10-15T18:37:01.229Z,11.13
2022-10-15T18:39:29.097Z,11.90
2022-10-15T18:41:56.966Z,11.20
2022-10-15T18:44:25.443Z,22.80
2022-10-15T18:46:54.804Z,20.60
2022-10-15T18:49:22.936Z,21.53
2022-10-15T18:51:52.882Z,19.23
2022-10-15T18:54:21.487Z,14.93
2022-10-15T18:56:49.695Z,19.03
2022-10-15T18:59:17.593Z,23.57
2022-10-15T19:01:45.656Z,27.60
2022-10-15T19:04:17.485Z,29.57
2022-10-15T19:06:47.521Z,24.50
2022-10-15T19:09:18.823Z,19.73
2022-10-15T19:11:49.481Z,20.13
2022-10-15T19:14:18.094Z,17.50
2022-10-15T19:16:46.780Z,19.40
2022-10-15T19:19:18.291Z,17.10
2022-10-15T19:21:47.524Z,11.03
2022-10-15T19:24:16.868Z,16.57
2022-10-15T19:26:44.873Z,16.57
2022-10-15T19:29:13.060Z,26.47
2022-10-15T19:31:42.635Z,23.83
2022-10-15T19:34:10.988Z,20.67
2022-10-15T19:36:43.360Z,19.83
2022-10-15T19:39:14.667Z,19.97
2022-10-15T19:41:44.151Z,19.50
2022-10-15T19:44:14.006Z,17.27
2022-10-15T19:46:42.039Z,15.90
2022-10-15T19:49:12.374Z,16.33
2022-10-15T19:51:41.769Z,16.37
2022-10-15T19:54:10.171Z,18.33
2022-10-15T19:56:38.062Z,21.47
2022-10-15T19:59:07.356Z,17.17
2022-10-15T20:01:35.647Z,19.17
2022-10-15T20:04:06.459Z,16.60
2022-10-15T20:06:36.131Z,16.53
2022-10-15T20:09:05.973Z,16.73
2022-10-15T20:11:34.191Z,17.83
2022-10-15T20:14:02.685Z,25.97
2022-10-15T20:16:33.190Z,28.90
2022-10-15T20:19:02.734Z,26.00
2022-10-15T20:21:30.818Z,28.60
2022-10-15T20:23:58.940Z,24.73
2022-10-15T20:26:28.207Z,17.93
2022-10-15T20:28:56.120Z,21.93
2022-10-15T20:31:28.545Z,23.40
2022-10-15T20:33:56.443Z,26.10
2022-10-15T20:36:27.340Z,24.40
2022-10-15T20:38:57.400Z,24.07
2022-10-15T20:41:25.813Z,18.27
2022-10-15T20:43:57.199Z,17.93
2022-10-15T20:46:28.840Z,16.03
2022-10-15T20:49:02.167Z,17.63
2022-10-15T20:51:33.120Z,15.30
2022-10-15T20:54:01.407Z,13.40
2022-10-15T20:56:29.569Z,12.07
2022-10-15T20:58:59.008Z,11.53
2022-10-15T21:01:26.892Z,11.50
2022-10-15T21:03:54.804Z,11.63
2022-10-15T21:06:22.855Z,11.03
2022-10-15T21:08:50.774Z,9.53
2022-10-15T21:11:18.662Z,9.90
2022-10-15T21:13:46.549Z,11.73
2022-10-15T21:16:15.868Z,12.20
2022-10-15T21:18:43.826Z,14.43
2022-10-15T21:21:13.600Z,11.20
2022-10-15T21:23:42.988Z,11.83
2022-10-15T21:26:13.381Z,11.67
2022-10-15T21:28:41.782Z,9.90
2022-10-15T21:31:11.327Z,11.97
2022-10-15T21:33:41.338Z,9.87
2022-10-15T21:36:14.216Z,9.73
2022-10-15T21:38:42.893Z,8.30
2022-10-15T21:41:10.877Z,10.23
2022-10-15T21:43:38.829Z,9.60
2022-10-15T21:46:09.101Z,8.43
2022-10-15T21:48:37.587Z,8.87
2022-10-15T21:51:10.487Z,8.80
2022-10-15T21:53:38.350Z,9.63
2022-10-15T21:56:08.085Z,9.83
2022-10-15T21:58:37.970Z,8.10
2022-10-15T22:01:10.263Z,7.80
2022-10-15T22:03:38.677Z,7.30
2022-10-15T22:06:09.446Z,7.53
2022-10-15T22:08:38.754Z,7.70
2022-10-15T22:11:12.653Z,8.87
2022-10-15T22:13:41.422Z,8.00
2022-10-15T22:16:10.749Z,7.83
2022-10-15T22:18:39.064Z,8.30
2022-10-15T22:21:15.768Z,9.10
2022-10-15T22:23:44.687Z,7.47
2022-10-15T22:26:13.389Z,8.20
2022-10-15T22:28:42.572Z,8.07
2022-10-15T22:31:13.847Z,8.00
2022-10-15T22:33:41.828Z,6.60
2022-10-15T22:36:16.647Z,7.37
2022-10-15T22:38:46.720Z,6.93
2022-10-15T22:41:18.076Z,7.00
2022-10-15T22:43:45.941Z,6.70
2022-10-15T22:46:14.288Z,9.10
2022-10-15T22:48:49.501Z,9.50
2022-10-15T22:51:18.828Z,9.93
2022-10-15T22:53:46.701Z,10.67
2022-10-15T22:56:16.942Z,10.80
2022-10-15T22:58:46.761Z,10.60
2022-10-15T23:01:16.344Z,10.77
2022-10-15T23:03:46.401Z,10.50
2022-10-15T23:06:15.386Z,11.20
2022-10-15T23:08:45.293Z,10.23
2022-10-15T23:11:15.592Z,10.73
2022-10-15T23:13:44.711Z,11.83
2022-10-15T23:16:15.076Z,11.20
2022-10-15T23:18:47.697Z,12.03
2022-10-15T23:21:20.102Z,11.33
2022-10-15T23:23:50.453Z,10.83
2022-10-15T23:26:23.703Z,10.77
2022-10-15T23:28:53.837Z,11.00
2022-10-15T23:31:25.718Z,11.87
2022-10-15T23:34:05.002Z,10.93
2022-10-15T23:36:38.684Z,10.80
2022-10-15T23:39:16.258Z,11.40
2022-10-15T23:41:46.402Z,11.37
2022-10-15T23:44:14.969Z,11.17
2022-10-15T23:46:43.423Z,11.03
2022-10-15T23:51:57.875Z,10.07
2022-10-15T23:54:27.228Z,11.47
2022-10-15T23:56:55.130Z,11.57
2022-10-15T23:59:25.900Z,10.93
